x

West Sea Otter (46204) Wave Buoy

12:00am - Sat 6th Feb 2016 All times are PST. -8 hours from GMT.

  • Sig Wave height 14.8ft
  • Peak Period 13s
  • Wind
    25mph, 31mph gusts
  • Sea Temp 48°f
  • 空気 Temp 47°f
  • Sea Pressure 1016.8mb
  • West Sea Otter
  • West Sea Otter

More Historic Weather Station data

Upgrade to MSW Pro to gain access to the past 30 days of data for over 8000 Wavebouys and Weather Stations around the globe.

Join Pro

Comparision Forecast

View Surf forecast
   
Sat 02/06 12:00am 15ft 13s 25 31 mph 1016.8mb 48f 47f
Fri 02/05 11:00pm 14.5ft 12s 27 34 mph 1015.2mb 48f 47f
10:00pm 15ft 14s 20 29 mph 1013.9mb 48f 46f
9:00pm 15ft 11s 18 22 mph 1012.7mb 48f 46f
8:00pm 14ft 13s 25 29 mph 1011.5mb 48f 45f
7:00pm 13.5ft 12s 22 27 mph 1010mb 49f 47f
6:00pm 15ft 13s 20 25 mph 1008.8mb 49f 46f
5:00pm 14.5ft 12s 25 31 mph 1007.1mb 49f 47f
4:00pm 14.5ft 13s 22 27 mph 1005.8mb 49f 47f
3:00pm 14.5ft 14s 18 25 mph 1004.2mb 49f 47f
2:00pm 15.5ft 14s 18 31 mph 1002.9mb 49f 47f
1:00pm 16ft 12s 13 22 mph 1003.3mb 49f 47f
12:00pm 17ft 14s 18 29 mph 1002.2mb 49f 47f
11:00am 18.5ft 13s 7 9 mph 1002.5mb 49f 47f
10:00am 20.5ft 11s 31 43 mph 1001.9mb 49f 46f
9:00am 21.5ft 11s 40 51 mph 1001mb 49f 47f
8:00am 22.5ft 14s 43 54 mph 1000.7mb 49f 46f
7:00am 23.5ft 13s 45 56 mph 1001.3mb 49f 46f
6:00am 23.5ft 14s 40 51 mph 1002.4mb 49f 46f
5:00am 22.5ft 10s 45 54 mph 1002.9mb 49f 46f
4:00am 22ft 14s 43 54 mph 1003.9mb 49f 46f
3:00am 22ft 9s 43 54 mph 1004.7mb 49f 46f
2:00am 21ft 9s 45 58 mph 1004.8mb 49f 46f
1:00am 19.5ft 10s 45 58 mph 1005.3mb 49f 46f
12:00am 20.5ft 8s 45 56 mph 1005.2mb 49f 46f
Thu 02/04 11:00pm 20.5ft 8s 45 56 mph 1005.7mb 49f 46f
10:00pm 19.5ft 8s 45 56 mph 1007mb 49f 46f
9:00pm 19ft 8s 43 56 mph 1007.2mb 49f 46f
8:00pm 17.5ft 8s 40 51 mph 1007.7mb 49f 46f
7:00pm 18ft 8s 40 49 mph 1008.5mb 49f 47f
6:00pm 17.5ft 8s 38 49 mph 1009.9mb 49f 47f
5:00pm 17.5ft 8s 38 51 mph 1010.7mb 49f 47f
4:00pm 17ft 7s 40 49 mph 1011.8mb 49f 47f
3:00pm 17.5ft 16s 38 49 mph 1012.5mb 49f 47f
2:00pm 18ft 15s 36 45 mph 1013.6mb 49f 47f
1:00pm 15.5ft 17s 38 47 mph 1013mb 49f 47f
12:00pm 15.5ft 16s 40 49 mph 1014.1mb 49f 46f
11:00am 14.5ft 17s 36 43 mph 1014.6mb 49f 46f
10:00am 13.5ft 16s 34 43 mph 1015mb 49f 46f
9:00am 13.5ft 17s 34 43 mph 1014.8mb 49f 46f
8:00am 15ft 17s 31 40 mph 1014.7mb 49f 46f
7:00am 14.5ft 16s 27 34 mph 1015.1mb 49f 46f
6:00am 15ft 16s 27 34 mph 1014.8mb 49f 48f
5:00am 15.5ft 16s 25 31 mph 1014.7mb 49f 48f
4:00am 15ft 18s 22 29 mph 1014.2mb 49f 48f
3:00am 15.5ft 17s 18 22 mph 1014mb 49f 47f
2:00am 15.5ft 18s 22 27 mph 1013.3mb 49f 47f
1:00am 14ft 18s 20 25 mph 1012.5mb 49f 48f
12:00am 15ft 20s 22 29 mph 1012.1mb 49f 46f
Wed 02/03 11:00pm 14ft 18s 22 27 mph 1011.5mb 49f 46f
10:00pm 14ft 20s 22 27 mph 1010.5mb 49f 46f
9:00pm 14ft 20s 22 29 mph 1009.7mb 49f 46f
8:00pm 13.5ft 16s 20 25 mph 1009.4mb 49f 46f
7:00pm 15ft 20s 18 22 mph 1009.1mb 49f 46f
6:00pm 14.5ft 18s 18 22 mph 1008.4mb 49f 45f
5:00pm 15.5ft 20s 11 16 mph 1007.6mb 49f 46f
4:00pm 14.5ft 18s 11 16 mph 1006.5mb 49f 46f
3:00pm 16.5ft 20s 25 31 mph 1004.4mb 49f 45f
2:00pm 15.5ft 8s 38 49 mph 1003.6mb 49f 45f
1:00pm 15ft 8s 38 47 mph 1004.2mb 49f 45f
12:00pm 15ft 8s 40 51 mph 1004.4mb 49f 45f
11:00am 15ft 8s 43 54 mph 1004.8mb 49f 45f
10:00am 15ft 8s 40 51 mph 1005.6mb 49f 44f
9:00am 14.5ft 8s 40 49 mph 1005.6mb 49f 45f
8:00am 14ft 8s 43 54 mph 1005.5mb 49f 45f
7:00am 14.5ft 8s 45 54 mph 1005.6mb 49f 45f
6:00am 15ft 8s 45 54 mph 1006.4mb 49f 45f
5:00am 14.5ft 8s 43 54 mph 1007.2mb 49f 46f
4:00am 15ft 8s 43 54 mph 1008.4mb 49f 45f
3:00am 14.5ft 9s 40 49 mph 1009.7mb 49f 46f
2:00am 15ft 8s 43 51 mph 1010.5mb 49f 46f
1:00am 13.5ft 7s 40 49 mph 1011.4mb 49f 46f
12:00am 12ft 8s 38 47 mph 1012.4mb 49f 46f
Tue 02/02 11:00pm 12.5ft 7s 38 45 mph 1013mb 49f 46f
10:00pm 11.5ft 12s 36 47 mph 1013.6mb 49f 46f
9:00pm 11ft 6s 36 43 mph 1014.5mb 49f 45f
8:00pm 11ft 12s 34 43 mph 1015.2mb 49f 46f
7:00pm 11ft 12s 31 38 mph 1016.1mb 49f 46f
6:00pm 10.5ft 12s 29 36 mph 1016.5mb 49f 46f
5:00pm 10ft 12s 27 36 mph 1016.8mb 49f 46f
4:00pm 9.5ft 12s 27 31 mph 1017.2mb 49f 46f
3:00pm 10ft 12s 27 31 mph 1017.6mb 49f 46f
2:00pm 9.5ft 11s 25 31 mph 1017.8mb 49f 46f
1:00pm 9ft 13s 27 31 mph 1018.1mb 49f 45f
12:00pm 9ft 11s 27 29 mph 1018.6mb 49f 45f
11:00am 9ft 13s 25 29 mph 1019.3mb 49f 44f
10:00am 9.5ft 9s 25 29 mph 1019.1mb 49f 44f